Latest Weather Observations for Cummins Airport

IDS60801

Issued at 12:41 pm CDT Monday 18 October 2021 (issued every 10 minutes, with the page automatically refreshed every 10 minutes)

About weather observations | Map of weather stations | Latest weather observations for SA | Other Formats
Station Details ID: 018217 Name: CUMMINS AERO Lat: -34.25 Lon: 135.71 Height: 60.11 m
Data from the previous 72 hours. | See also: Recent months at Cummins Airport
Date/Time
CDT
Temp
°C
App
Temp
°C
Dew
Point
°C
Rel
Hum
%
Delta-T
°C
Wind Press
QNH
hPa
Press
MSL
hPa
Rain since
9am
mm
Dir  Spd
km/h
Gust
km/h
Spd
kts
Gust
kts
18/12:30pm 23.4 21.6 12.1 49 6.4 SE 13 20 7 11 1015.7 1015.6 0.0
18/12:00pm 22.0 19.3 10.5 48 6.3 ESE 15 24 8 13 1015.8 1015.7 0.0
18/11:30am 21.6 19.3 11.6 53 5.6 SSE 15 22 8 12 1016.0 1015.9 0.0
18/11:00am 20.8 18.8 12.8 60 4.5 SE 15 24 8 13 1015.9 1015.8 0.0
18/10:30am 19.7 17.8 12.9 65 3.8 ESE 15 22 8 12 1015.7 1015.6 0.0
18/10:00am 18.1 16.3 13.2 73 2.8 ESE 15 20 8 11 1015.6 1015.5 0.0
18/09:30am 17.4 15.5 13.1 76 2.4 ESE 15 20 8 11 1015.5 1015.4 0.0
18/09:00am 16.3 14.8 14.3 88 1.1 SE 15 20 8 11 1015.3 1015.2 0.0
18/08:30am 14.2 13.8 14.2 100 0.0 SSE 9 13 5 7 1014.8 1014.7 0.0
18/08:00am 11.8 11.0 11.8 100 0.0 SSW 7 11 4 6 1014.4 1014.3 0.0
18/07:30am 10.1 8.8 10.1 100 0.0 S 7 9 4 5 1013.9 1013.8 0.0
18/07:00am 9.6 7.1 9.6 100 0.0 S 13 13 7 7 1013.5 1013.4 0.0
18/06:30am 9.8 8.7 9.8 100 0.0 SSW 6 7 3 4 1013.0 1012.9 0.0
18/06:00am 10.3 8.7 10.3 100 0.0 S 9 11 5 6 1012.5 1012.4 0.0
18/05:30am 10.6 8.3 10.6 100 0.0 S 13 15 7 8 1012.2 1012.1 0.0
18/05:00am 10.6 8.7 10.6 100 0.0 S 11 13 6 7 1012.0 1011.9 0.0
18/04:30am 11.6 10.8 11.6 100 0.0 SSW 7 9 4 5 1011.7 1011.6 0.0
18/04:00am 12.5 12.0 12.5 100 0.0 SSE 7 9 4 5 1011.5 1011.4 0.0
18/03:30am 11.9 11.2 11.9 100 0.0 SE 7 9 4 5 1011.5 1011.4 0.0
18/03:00am 12.0 10.9 12.0 100 0.0 SSE 9 11 5 6 1011.5 1011.4 0.0
18/02:30am 11.7 11.1 11.7 100 0.0 S 6 7 3 4 1011.7 1011.6 0.0
18/02:00am 11.7 10.5 11.7 100 0.0 S 9 13 5 7 1011.8 1011.7 0.0
18/01:30am 12.5 11.6 12.5 100 0.0 SE 9 13 5 7 1011.7 1011.6 0.0
18/01:00am 12.0 10.9 12.0 100 0.0 SSE 9 11 5 6 1011.7 1011.6 0.0
18/12:30am 13.2 12.3 12.7 97 0.3 SSE 9 13 5 7 1011.8 1011.7 0.0
18/12:00am 13.5 12.0 13.0 97 0.3 SE 13 20 7 11 1011.9 1011.8 0.0
 
Date/Time
CDT
Temp
°C
App
Temp
°C
Dew
Point
°C
Rel
Hum
%
Delta-T
°C
Wind Press
QNH
hPa
Press
MSL
hPa
Rain since
9am
mm
Dir  Spd
km/h
Gust
km/h
Spd
kts
Gust
kts
17/11:30pm 13.7 12.2 13.1 96 0.3 SE 13 17 7 9 1012.0 1011.9 0.0
17/11:00pm 13.4 11.9 13.2 99 0.1 S 13 19 7 10 1012.1 1012.0 0.0
17/10:30pm 13.7 11.9 13.4 98 0.2 SE 15 28 8 15 1012.0 1011.9 0.0
17/10:00pm 13.7 12.6 13.2 97 0.3 S 11 19 6 10 1012.2 1012.1 0.0
17/09:30pm 13.9 11.8 12.5 91 0.8 SSE 15 20 8 11 1011.8 1011.7 0.0
17/09:00pm 14.0 11.4 12.0 88 1.1 SE 17 22 9 12 1011.3 1011.2 0.0
17/08:30pm 14.4 11.2 11.4 82 1.6 SE 19 24 10 13 1010.8 1010.8 0.0
17/08:00pm 15.0 12.0 12.1 83 1.6 ESE 19 24 10 13 1010.7 1010.7 0.0
17/07:30pm 16.1 13.0 11.5 74 2.5 SE 19 24 10 13 1010.5 1010.5 0.0
17/07:00pm 17.5 14.0 10.9 65 3.6 SE 20 26 11 14 1010.2 1010.2 0.0
17/06:30pm 19.2 15.3 12.0 63 4.0 SE 24 30 13 16 1009.6 1009.6 0.0
17/06:00pm 20.3 17.0 11.5 57 4.9 SE 20 26 11 14 1009.3 1009.3 0.0
17/05:30pm 22.5 19.4 12.2 52 5.9 ESE 20 28 11 15 1008.9 1008.9 0.0
17/05:00pm 23.4 20.4 12.1 49 6.4 SE 19 26 10 14 1008.7 1008.7 0.0
17/04:30pm 23.6 20.8 11.3 46 6.9 SE 17 24 9 13 1008.8 1008.8 0.0
17/04:00pm 24.1 21.1 12.1 47 6.8 SE 19 26 10 14 1008.8 1008.8 0.0
17/03:30pm 24.1 22.1 11.4 45 7.2 SE 13 20 7 11 1009.0 1009.0 0.0
17/03:00pm 25.4 23.6 8.0 33 9.3 NW 7 19 4 10 1009.1 1009.1 0.0
17/02:30pm 25.0 21.5 8.9 36 8.7 W 17 28 9 15 1009.4 1009.4 0.0
17/02:00pm 24.8 21.9 9.5 38 8.4 WNW 15 22 8 12 1009.8 1009.8 0.0
17/01:30pm 24.5 22.5 8.5 36 8.6 N 9 20 5 11 1010.2 1010.2 0.0
17/01:00pm 23.7 21.3 8.6 38 8.1 NNW 11 24 6 13 1010.7 1010.7 0.0
17/12:30pm 23.2 21.6 10.3 44 7.1 NNE 9 24 5 13 1011.2 1011.1 0.0
17/12:00pm 22.4 21.0 10.9 48 6.4 NNE 9 17 5 9 1011.8 1011.7 0.0
17/11:30am 20.7 18.3 9.9 50 5.8 NE 13 20 7 11 1012.2 1012.1 0.0
17/11:00am 19.7 17.9 10.9 57 4.8 NNE 11 19 6 10 1012.7 1012.6 0.0
17/10:30am 18.7 16.6 11.3 62 4.0 NE 13 26 7 14 1013.0 1012.9 0.0
17/10:00am 17.3 14.9 11.3 68 3.3 ENE 15 20 8 11 1013.1 1013.0 0.0
17/09:30am 15.9 13.4 12.3 79 2.0 ENE 17 24 9 13 1013.1 1013.0 0.0
17/09:00am 14.2 12.1 13.6 96 0.3 E 17 22 9 12 1013.3 1013.2 0.0
17/08:30am 12.8 11.2 12.8 100 0.0 E 13 19 7 10 1013.2 1013.1 0.0
17/08:00am 8.7 7.3 8.7 100 0.0 SSE 6 9 3 5 1013.2 1013.1 0.0
17/07:30am 5.4 2.7 5.4 100 0.0 S 9 11 5 6 1013.2 1013.1 0.0
17/07:00am 2.6 1.0 2.6 100 0.0 CALM 0 0 0 0 1012.9 1012.8 0.0
17/06:30am 3.1 1.6 3.1 100 0.0 CALM 0 0 0 0 1012.6 1012.5 0.0
17/06:00am 2.6 1.0 2.6 100 0.0 CALM 0 0 0 0 1012.4 1012.3 0.0
17/05:30am 3.0 1.5 3.0 100 0.0 CALM 0 0 0 0 1012.5 1012.4 0.0
17/05:00am 3.5 2.1 3.5 100 0.0 CALM 0 0 0 0 1012.5 1012.4 0.0
17/04:30am 3.6 2.2 3.6 100 0.0 CALM 0 0 0 0 1012.7 1012.6 0.0
17/04:00am 4.3 3.0 4.3 100 0.0 CALM 0 0 0 0 1013.0 1012.9 0.0
17/03:30am 3.8 2.4 3.8 100 0.0 CALM 0 0 0 0 1013.2 1013.1 0.0
17/03:00am 3.7 1.2 3.7 100 0.0 NNE 6 7 3 4 1013.6 1013.5 0.0
17/02:30am 4.7 2.4 4.7 100 0.0 ESE 6 7 3 4 1014.2 1014.1 0.0
17/02:00am 4.2 1.8 4.2 100 0.0 ESE 6 7 3 4 1014.8 1014.7 0.0
17/01:30am 5.2 2.8 5.2 100 0.0 SE 7 9 4 5 1015.3 1015.2 0.0
17/01:00am 4.9 3.8 4.9 100 0.0 CALM 0 9 0 5 1015.5 1015.4 0.0
17/12:30am 5.3 4.2 5.3 100 0.0 CALM 0 6 0 3 1016.1 1016.0 0.0
17/12:00am 6.0 4.3 6.0 100 0.0 SE 4 6 2 3 1016.3 1016.2 0.0
 
Date/Time
CDT
Temp
°C
App
Temp
°C
Dew
Point
°C
Rel
Hum
%
Delta-T
°C
Wind Press
QNH
hPa
Press
MSL
hPa
Rain since
9am
mm
Dir  Spd
km/h
Gust
km/h
Spd
kts
Gust
kts
16/11:30pm 6.4 4.2 6.4 100 0.0 SE 7 9 4 5 1016.3 1016.2 0.0
16/11:00pm 6.5 4.6 6.5 100 0.0 SSE 6 7 3 4 1016.5 1016.4 0.0
16/10:30pm 6.8 4.7 6.8 100 0.0 S 7 9 4 5 1016.6 1016.5 0.0
16/10:00pm 7.0 5.0 7.0 100 0.0 SSE 7 9 4 5 1016.5 1016.4 0.0
16/09:30pm 8.7 7.3 8.7 100 0.0 ESE 6 9 3 5 1016.5 1016.4 0.0
16/09:00pm 9.2 7.3 9.1 99 0.0 E 9 9 5 5 1016.5 1016.4 0.0
16/08:30pm 9.9 8.1 9.3 96 0.3 ESE 9 13 5 7 1016.0 1015.9 0.0
16/08:00pm 11.0 8.3 9.1 88 0.9 SE 13 17 7 9 1015.7 1015.6 0.0
16/07:30pm 12.5 10.2 9.0 79 1.8 SE 11 17 6 9 1015.4 1015.3 0.0
16/07:00pm 14.2 10.8 9.2 72 2.6 SE 17 20 9 11 1015.1 1015.0 0.0
16/06:30pm 15.0 11.6 9.1 68 3.0 SE 17 24 9 13 1015.0 1014.9 0.0
16/06:00pm 16.5 13.6 8.0 57 4.3 SSW 13 19 7 10 1015.0 1014.9 0.0
16/05:30pm 17.0 15.9 8.4 57 4.4 S 4 9 2 5 1015.1 1015.0 0.0
16/05:00pm 17.2 15.5 8.4 56 4.5 S 7 13 4 7 1014.9 1014.8 0.0
16/04:30pm 17.6 15.6 8.7 56 4.6 WSW 9 15 5 8 1015.1 1015.0 0.0
16/04:00pm 17.2 15.5 8.4 56 4.5 SE 7 11 4 6 1015.3 1015.2 0.0
16/03:30pm 16.9 15.4 8.3 57 4.4 SW 6 11 3 6 1015.7 1015.6 0.0
16/03:00pm 16.7 16.2 7.9 56 4.4 CALM 0 6 0 3 1016.1 1016.0 0.0
16/02:30pm 16.7 15.3 8.7 59 4.1 W 6 11 3 6 1016.4 1016.3 0.0
16/02:00pm 15.7 13.8 7.7 59 4.0 WNW 7 15 4 8 1016.8 1016.7 0.0
16/01:30pm 15.6 12.7 8.1 61 3.8 W 13 20 7 11 1017.2 1017.1 0.0
16/01:00pm 15.3 12.7 7.8 61 3.8 WSW 11 15 6 8 1017.5 1017.4 0.0
16/12:30pm 15.6 13.9 8.4 62 3.6 SSW 7 13 4 7 1017.8 1017.7 0.0
16/12:00pm 15.0 14.2 8.3 64 3.4 WNW 2 7 1 4 1018.1 1018.0 0.0
16/11:30am 14.3 12.4 7.6 64 3.3 WSW 7 11 4 6 1018.6 1018.5 0.0
16/11:00am 13.9 11.3 7.7 66 3.1 WSW 11 15 6 8 1018.8 1018.7 0.0
16/10:30am 13.9 12.5 7.2 64 3.3 NNE 4 7 2 4 1018.9 1018.8 0.0
16/10:00am 13.9 13.1 8.3 69 2.8 SE 2 11 1 6 1018.8 1018.7 0.0
16/09:30am 13.3 11.8 8.6 73 2.4 SSW 6 9 3 5 1018.8 1018.7 0.0
16/09:00am 12.8 12.1 8.5 75 2.1 WSW 2 6 1 3 1018.6 1018.5 0.2
16/08:30am 12.3 12.0 8.8 79 1.7 CALM 0 0 0 0 1018.5 1018.4 0.2
16/08:00am 11.9 10.9 10.3 90 0.8 S 6 7 3 4 1018.3 1018.2 0.2
16/07:30am 11.3 10.4 10.7 96 0.3 SSW 6 7 3 4 1018.1 1018.0 0.2
16/07:00am 10.9 11.2 10.9 100 0.0 CALM 0 0 0 0 1017.8 1017.7 0.2
16/06:30am 10.9 11.2 10.9 100 0.0 CALM 0 0 0 0 1017.6 1017.5 0.2
16/06:00am 10.9 11.2 10.9 100 0.0 CALM 0 0 0 0 1017.5 1017.4 0.2
16/05:30am 10.9 9.9 10.9 100 0.0 SSW 7 9 4 5 1017.4 1017.3 0.2
16/05:00am 11.0 9.6 11.0 100 0.0 SW 9 13 5 7 1017.4 1017.3 0.2
16/04:30am 11.2 11.5 11.0 99 0.1 CALM 0 6 0 3 1017.2 1017.1 0.2
16/04:00am 11.2 10.2 11.0 99 0.1 WSW 7 9 4 5 1017.4 1017.3 0.2
16/03:30am 11.1 10.1 11.1 100 0.0 SSW 7 9 4 5 1017.5 1017.4 0.2
16/03:00am 11.2 10.3 11.2 100 0.0 SW 7 9 4 5 1017.7 1017.6 0.2
16/02:30am 11.3 10.6 11.3 100 0.0 WSW 6 9 3 5 1017.8 1017.7 0.2
16/02:00am 11.4 10.1 11.1 98 0.2 SSW 9 11 5 6 1018.0 1017.9 0.2
16/01:30am 11.6 10.3 11.4 99 0.1 WSW 9 11 5 6 1018.1 1018.0 0.2
16/01:00am 11.5 10.3 11.5 100 0.0 SW 9 11 5 6 1018.3 1018.2 0.2
16/12:30am 11.5 10.6 11.5 100 0.0 SSW 7 9 4 5 1018.4 1018.3 0.2
16/12:00am 11.5 10.6 11.5 100 0.0 SW 7 7 4 4 1018.3 1018.2 0.2
 
Date/Time
CDT
Temp
°C
App
Temp
°C
Dew
Point
°C
Rel
Hum
%
Delta-T
°C
Wind Press
QNH
hPa
Press
MSL
hPa
Rain since
9am
mm
Dir  Spd
km/h
Gust
km/h
Spd
kts
Gust
kts
15/11:30pm 11.5 10.8 11.5 100 0.0 SSW 6 7 3 4 1018.5 1018.4 0.2
15/11:00pm 11.5 10.6 11.5 100 0.0 SW 7 11 4 6 1018.5 1018.4 0.2
15/10:30pm 11.5 10.6 11.5 100 0.0 SW 7 9 4 5 1018.4 1018.3 0.2
15/10:00pm 11.8 10.3 11.8 100 0.0 SSW 11 13 6 7 1018.4 1018.3 0.2
15/09:30pm 12.0 10.2 12.0 100 0.0 SW 13 15 7 8 1018.1 1018.0 0.2
15/09:00pm 11.9 10.8 11.9 100 0.0 SW 9 13 5 7 1017.9 1017.8 0.2
15/08:30pm 11.8 9.7 11.3 97 0.3 SSW 13 17 7 9 1017.6 1017.5 0.2
15/08:00pm 12.6 10.3 10.5 87 1.1 SSW 13 17 7 9 1017.3 1017.2 0.2
15/07:30pm 13.7 10.7 10.7 82 1.6 SSW 17 24 9 13 1016.8 1016.7 0.2
15/07:00pm 14.3 10.8 10.1 76 2.2 SSW 19 26 10 14 1016.3 1016.2 0.2
15/06:30pm 14.6 10.9 10.2 75 2.3 SW 20 28 11 15 1016.1 1016.0 0.2
15/06:00pm 14.9 11.3 10.5 75 2.3 SSW 20 26 11 14 1015.9 1015.8 0.2
15/05:30pm 15.2 11.2 10.4 73 2.5 SSW 22 33 12 18 1015.8 1015.7 0.2
15/05:00pm 15.8 11.8 10.3 70 2.9 SSW 22 32 12 17 1015.6 1015.5 0.2
15/04:30pm 16.0 11.0 9.7 66 3.3 SSW 26 33 14 18 1015.4 1015.3 0.2
15/04:00pm 16.2 11.7 10.1 67 3.2 SW 24 32 13 17 1015.4 1015.3 0.2
15/03:30pm 16.1 10.8 9.8 66 3.3 SSW 28 37 15 20 1015.5 1015.4 0.2
15/03:00pm 16.6 11.2 9.5 63 3.7 SSW 28 41 15 22 1015.6 1015.5 0.2
15/02:30pm 16.6 10.6 8.6 59 4.1 SW 30 39 16 21 1015.7 1015.6 0.2
15/02:00pm 17.0 11.5 10.4 65 3.5 SSW 30 39 16 21 1015.6 1015.5 0.2
15/01:30pm 17.1 12.0 10.7 66 3.4 SW 28 37 15 20 1015.7 1015.6 0.0
15/01:00pm 17.0 12.2 11.5 70 3.0 SW 28 37 15 20 1015.7 1015.6 0.0

Other formats

Comma delimited format used in spreadsheet applications
http://www.bom.gov.au/fwo/IDS60801/IDS60801.95663.axf

JavaScript Object Notation format (JSON) in row-major order
http://www.bom.gov.au/fwo/IDS60801/IDS60801.95663.json

Data quality

Most of these data are generated automatically and are frequently updated. Quality checks on data are not normally performed. It is possible for incorrect values to appear. Refer to information at About Latest Weather Observations and please check the disclaimer before using these data.